createdAt,value
2023-10-25T00:03:56.313Z,100.00
2023-10-25T00:08:57.112Z,100.00
2023-10-25T00:13:58.290Z,100.00
2023-10-25T00:19:00.411Z,100.00
2023-10-25T00:24:01.229Z,100.00
2023-10-25T00:29:02.015Z,100.00
2023-10-25T00:34:04.510Z,100.00
2023-10-25T00:39:05.658Z,100.00
2023-10-25T00:44:06.884Z,100.00
2023-10-25T00:49:09.739Z,100.00
2023-10-25T00:54:11.130Z,100.00
2023-10-25T00:59:13.497Z,100.00
2023-10-25T01:04:15.835Z,100.00
2023-10-25T01:09:17.782Z,100.00
2023-10-25T01:14:18.605Z,100.00
2023-10-25T01:19:20.763Z,100.00
2023-10-25T01:24:23.418Z,100.00
2023-10-25T01:29:24.278Z,100.00
2023-10-25T01:34:25.118Z,100.00
2023-10-25T01:39:27.717Z,100.00
2023-10-25T01:44:28.569Z,100.00
2023-10-25T01:49:29.379Z,100.00
2023-10-25T01:54:31.510Z,100.00
2023-10-25T01:59:32.292Z,100.00
2023-10-25T02:04:33.120Z,100.00
2023-10-25T02:09:35.404Z,100.00
2023-10-25T02:14:37.631Z,100.00
2023-10-25T02:19:41.389Z,100.00
2023-10-25T02:24:43.751Z,100.00
2023-10-25T02:29:44.794Z,99.66
2023-10-25T02:34:45.705Z,99.62
2023-10-25T02:39:47.868Z,100.00
2023-10-25T02:44:48.664Z,99.45
2023-10-25T02:49:49.460Z,99.66
2023-10-25T02:54:51.615Z,100.00
2023-10-25T02:59:53.272Z,100.00
2023-10-25T03:04:54.277Z,100.00
2023-10-25T03:09:56.441Z,100.00
2023-10-25T03:14:57.256Z,98.92
2023-10-25T03:19:58.068Z,98.64
2023-10-25T03:25:00.594Z,98.76
2023-10-25T03:30:01.437Z,98.50
2023-10-25T03:35:02.239Z,99.04
2023-10-25T03:40:05.132Z,97.81
2023-10-25T03:45:07.675Z,97.10
2023-10-25T03:50:09.382Z,96.64
2023-10-25T03:55:12.855Z,97.28
2023-10-25T04:00:15.079Z,98.08
2023-10-25T04:05:16.076Z,97.68
2023-10-25T04:10:18.401Z,98.06
2023-10-25T04:15:19.209Z,97.91
2023-10-25T04:20:19.974Z,98.74
2023-10-25T04:25:22.984Z,98.19
2023-10-25T04:30:24.014Z,99.14
2023-10-25T04:35:24.900Z,99.85
2023-10-25T04:40:27.116Z,99.13
2023-10-25T04:45:30.113Z,98.41
2023-10-25T04:50:35.674Z,98.71
2023-10-25T04:55:38.507Z,98.33
2023-10-25T05:00:39.489Z,98.60
2023-10-25T05:05:40.622Z,97.66
2023-10-25T05:10:43.395Z,97.72
2023-10-25T05:15:44.751Z,98.02
2023-10-25T05:20:46.044Z,97.83
2023-10-25T05:25:48.824Z,97.45
2023-10-25T05:30:52.104Z,97.24
2023-10-25T05:35:53.404Z,97.02
2023-10-25T05:40:56.137Z,97.11
2023-10-25T05:45:58.066Z,97.14
2023-10-25T05:51:05.261Z,96.80
2023-10-25T05:56:08.422Z,95.45
2023-10-25T06:01:11.378Z,97.00
2023-10-25T06:06:14.663Z,97.29
2023-10-25T06:11:18.536Z,96.13
2023-10-25T06:16:19.477Z,95.02
2023-10-25T06:21:20.381Z,94.17
2023-10-25T06:26:22.674Z,93.70
2023-10-25T06:31:23.555Z,94.03
2023-10-25T06:36:25.058Z,93.28
2023-10-25T06:41:28.069Z,92.77
2023-10-25T06:46:29.454Z,93.01
2023-10-25T06:51:30.885Z,91.82
2023-10-25T06:56:34.426Z,90.74
2023-10-25T07:01:39.265Z,90.83
2023-10-25T07:06:41.435Z,90.11
2023-10-25T07:11:45.680Z,89.91
2023-10-25T07:16:46.804Z,91.17
2023-10-25T07:21:47.775Z,90.90
2023-10-25T07:26:49.996Z,89.94
2023-10-25T07:31:50.974Z,90.30
2023-10-25T07:36:51.825Z,90.22
2023-10-25T07:41:53.982Z,90.95
2023-10-25T07:46:54.947Z,90.65
2023-10-25T07:51:56.428Z,89.98
2023-10-25T08:02:02.409Z,87.90
2023-10-25T08:07:03.241Z,86.38
2023-10-25T08:12:06.003Z,85.03
2023-10-25T08:17:06.915Z,84.60
2023-10-25T08:22:07.883Z,84.39
2023-10-25T08:27:10.209Z,83.24
2023-10-25T08:32:11.015Z,82.20
2023-10-25T08:37:11.957Z,80.29
2023-10-25T08:42:14.312Z,79.72
2023-10-25T08:47:15.735Z,79.16
2023-10-25T08:52:24.185Z,77.67
2023-10-25T08:57:26.615Z,79.64
2023-10-25T09:02:27.571Z,79.81
2023-10-25T09:07:29.548Z,80.12
2023-10-25T09:12:33.643Z,78.84
2023-10-25T09:17:34.617Z,77.55
2023-10-25T09:22:35.558Z,76.97
2023-10-25T09:27:44.365Z,77.83
2023-10-25T09:32:45.310Z,75.22
2023-10-25T09:37:46.267Z,74.81
2023-10-25T09:42:53.799Z,75.33
2023-10-25T09:47:57.037Z,71.51
2023-10-25T09:53:06.435Z,69.97
2023-10-25T09:58:11.936Z,68.54
2023-10-25T10:03:24.311Z,65.99
2023-10-25T10:08:32.471Z,66.55
2023-10-25T10:13:34.664Z,67.50
2023-10-25T10:18:36.812Z,65.32
2023-10-25T10:23:40.005Z,66.11
2023-10-25T10:28:44.076Z,66.15
2023-10-25T10:33:46.578Z,66.07
2023-10-25T10:39:14.984Z,66.06
2023-10-25T10:44:17.264Z,64.17
2023-10-25T10:49:20.761Z,63.06
2023-10-25T10:54:21.554Z,62.23
2023-10-25T10:59:25.677Z,61.32
2023-10-25T11:04:26.866Z,61.50
2023-10-25T11:09:27.799Z,61.66
2023-10-25T11:14:30.094Z,60.51
2023-10-25T11:19:34.666Z,59.81
2023-10-25T11:24:37.196Z,58.85
2023-10-25T11:29:40.009Z,58.53
2023-10-25T11:34:47.378Z,57.43
2023-10-25T11:39:58.768Z,56.65
2023-10-25T11:45:02.617Z,56.01
2023-10-25T11:50:04.500Z,56.18
2023-10-25T11:55:05.894Z,57.36
2023-10-25T12:00:10.269Z,56.55
2023-10-25T12:05:15.178Z,57.29
2023-10-25T12:10:17.386Z,57.55
2023-10-25T12:15:19.576Z,56.79
2023-10-25T12:20:27.826Z,57.07
2023-10-25T12:25:29.455Z,57.03
2023-10-25T12:30:31.791Z,56.72
2023-10-25T12:35:32.648Z,55.72
2023-10-25T12:40:33.470Z,54.22
2023-10-25T12:45:35.675Z,54.19
2023-10-25T12:50:36.811Z,53.24
2023-10-25T12:55:37.640Z,51.99
2023-10-25T13:00:39.849Z,50.41
2023-10-25T13:05:40.759Z,50.50
2023-10-25T13:10:41.641Z,50.04
2023-10-25T13:15:43.949Z,51.21
2023-10-25T13:20:44.827Z,50.34
2023-10-25T13:25:45.643Z,50.13
2023-10-25T13:30:47.930Z,49.22
2023-10-25T13:35:49.406Z,49.87
2023-10-25T13:40:50.866Z,50.98
2023-10-25T13:45:53.248Z,50.55
2023-10-25T13:50:54.219Z,53.37
2023-10-25T13:55:55.189Z,52.71
2023-10-25T14:00:59.392Z,55.38
2023-10-25T14:06:04.652Z,56.58
2023-10-25T14:11:05.554Z,57.17
2023-10-25T14:16:11.826Z,58.39
2023-10-25T14:21:17.024Z,59.62
2023-10-25T14:26:20.099Z,60.41
2023-10-25T14:31:22.317Z,59.18
2023-10-25T14:36:23.246Z,60.80
2023-10-25T14:41:24.173Z,61.90
2023-10-25T14:46:28.453Z,62.83
2023-10-25T14:51:29.296Z,63.83
2023-10-25T14:56:30.190Z,63.73
2023-10-25T15:01:32.362Z,62.82
2023-10-25T15:06:33.203Z,64.16
2023-10-25T15:11:34.103Z,64.36
2023-10-25T15:16:36.543Z,65.71
2023-10-25T15:21:37.405Z,67.08
2023-10-25T15:26:38.189Z,68.59
2023-10-25T15:31:40.416Z,68.83
2023-10-25T15:36:41.695Z,70.01
2023-10-25T15:41:44.142Z,71.44
2023-10-25T15:46:46.529Z,72.52
2023-10-25T15:51:47.353Z,73.88
2023-10-25T15:56:52.140Z,75.49
2023-10-25T16:02:08.973Z,76.29
2023-10-25T16:07:10.933Z,77.38
2023-10-25T16:12:12.213Z,79.23
2023-10-25T16:17:14.477Z,79.85
2023-10-25T16:22:19.221Z,79.80
2023-10-25T16:27:20.372Z,79.34
2023-10-25T16:32:22.604Z,78.91
2023-10-25T16:37:26.790Z,77.35
2023-10-25T16:42:27.871Z,77.19
2023-10-25T16:47:30.046Z,77.70
2023-10-25T16:52:32.658Z,77.37
2023-10-25T16:57:33.551Z,76.79
2023-10-25T17:02:35.740Z,76.16
2023-10-25T17:07:36.701Z,76.11
2023-10-25T17:12:37.674Z,75.20
2023-10-25T17:17:39.901Z,74.43
2023-10-25T17:22:41.078Z,74.67
2023-10-25T17:27:42.691Z,74.50
2023-10-25T17:32:46.600Z,74.23
2023-10-25T17:37:47.501Z,73.23
2023-10-25T17:42:48.362Z,73.43
2023-10-25T17:47:51.537Z,76.86
2023-10-25T17:52:52.549Z,78.51
2023-10-25T17:57:53.323Z,81.39
2023-10-25T18:02:55.519Z,83.31
2023-10-25T18:07:56.448Z,85.28
2023-10-25T18:12:57.267Z,87.07
2023-10-25T18:18:00.271Z,89.08
2023-10-25T18:23:01.776Z,91.44
2023-10-25T18:28:03.156Z,94.12
2023-10-25T18:33:05.458Z,96.45
2023-10-25T18:38:08.783Z,96.80
2023-10-25T18:43:09.776Z,98.41
2023-10-25T18:48:12.046Z,99.12
2023-10-25T18:53:13.097Z,100.00
2023-10-25T18:58:17.704Z,100.00
2023-10-25T19:03:20.474Z,100.00
2023-10-25T19:08:25.553Z,100.00
2023-10-25T19:13:29.410Z,100.00
2023-10-25T19:18:34.033Z,100.00
2023-10-25T19:23:36.355Z,100.00
2023-10-25T19:28:37.403Z,100.00
2023-10-25T19:33:41.523Z,100.00
2023-10-25T19:38:42.828Z,100.00
2023-10-25T19:43:43.737Z,100.00
2023-10-25T19:48:45.933Z,100.00
2023-10-25T19:53:46.911Z,100.00
2023-10-25T19:58:49.209Z,98.64
2023-10-25T20:03:52.655Z,98.90
2023-10-25T20:08:53.616Z,98.09
2023-10-25T20:13:54.498Z,98.05
2023-10-25T20:18:57.062Z,96.81
2023-10-25T20:24:01.563Z,95.86
2023-10-25T20:29:03.157Z,95.55
2023-10-25T20:34:05.436Z,94.79
2023-10-25T20:39:06.374Z,94.17
2023-10-25T20:44:07.320Z,93.99
2023-10-25T20:49:09.509Z,93.48
2023-10-25T20:54:10.341Z,91.10
2023-10-25T20:59:11.392Z,90.60
2023-10-25T21:04:13.644Z,89.11
2023-10-25T21:09:14.582Z,89.69
2023-10-25T21:14:15.944Z,89.94
2023-10-25T21:19:18.069Z,89.57
2023-10-25T21:24:19.024Z,89.34
2023-10-25T21:29:19.935Z,90.09
2023-10-25T21:34:22.111Z,90.30
2023-10-25T21:39:22.982Z,91.27
2023-10-25T21:44:23.867Z,92.57
2023-10-25T21:49:26.305Z,93.32
2023-10-25T21:54:27.182Z,93.80
2023-10-25T21:59:48.206Z,95.70
2023-10-25T22:04:50.211Z,97.03
2023-10-25T22:09:51.010Z,98.07
2023-10-25T22:14:51.860Z,99.62
2023-10-25T22:19:54.060Z,100.00
2023-10-25T22:24:54.857Z,100.00
2023-10-25T22:29:55.659Z,100.00
2023-10-25T22:34:58.241Z,100.00
2023-10-25T22:40:01.360Z,100.00
2023-10-25T22:45:02.213Z,100.00
2023-10-25T22:50:04.677Z,100.00
2023-10-25T22:55:06.101Z,100.00
2023-10-25T23:00:08.235Z,100.00
2023-10-25T23:05:10.734Z,100.00
2023-10-25T23:10:11.742Z,100.00
2023-10-25T23:15:12.653Z,100.00
2023-10-25T23:20:14.887Z,100.00
2023-10-25T23:25:15.679Z,100.00
2023-10-25T23:30:17.003Z,100.00
2023-10-25T23:35:19.185Z,99.90
2023-10-25T23:40:19.931Z,100.00
2023-10-25T23:45:20.732Z,99.77
2023-10-25T23:50:22.843Z,99.59
2023-10-25T23:55:23.628Z,99.16
